Time;durP1;ratioP1;P1;durP2;ratioP2;P2;SDS_P1;SDS_P2;PMS_P1;PMS_P2;Temp;Humidity;BMP_temperature;BMP_pressure;BME280_temperature;BME280_humidity;BME280_pressure;Samples;Min_cycle;Max_cycle;Signal;HPM_P1;HPM_P2
2023/07/20 00:06:27;;;;;;;;;;;;;;;21.47;43.98;99630.38;1088464;54;19927;-88
2023/07/20 00:07:28;;;;;;;;;;;;;;;21.37;44.29;99627.34;1088001;54;19974;-86
2023/07/20 00:08:32;;;;;;;;;;;;;;;21.41;44.11;99629.38;1088098;47;19934;-88
2023/07/20 00:09:32;;;;;;;;;;;;;;;21.30;44.09;99632.88;1088003;54;19943;-86
2023/07/20 00:10:36;;;;;;;;;;;;;;;21.34;44.16;99624.03;1088147;47;19966;-86
2023/07/20 00:11:37;;;;;;;;;;;;;;;21.35;43.95;99625.69;1087987;47;19966;-87
2023/07/20 00:12:41;;;;;;;;;;;;;;;21.32;43.93;99631.59;1088083;54;19927;-86
2023/07/20 00:13:44;;;;;;;;;;;;;;;21.26;44.26;99635.19;1088100;54;19965;-86
2023/07/20 09:19:04;;;;;;;;;;;;;;;25.40;36.79;99685.41;1087383;54;19942;-87
2023/07/20 09:20:09;;;;;;;;;;;;;;;25.12;36.80;99682.50;1087777;54;19943;-87
2023/07/20 09:21:13;;;;;;;;;;;;;;;24.92;37.06;99685.75;1087396;47;19943;-86
2023/07/20 09:22:14;;;;;;;;;;;;;;;24.72;36.96;99684.34;1087210;47;19971;-87
2023/07/20 09:23:17;;;;;;;;;;;;;;;24.29;37.74;99693.91;1087246;47;19949;-88
2023/07/20 09:24:19;;;;;;;;;;;;;;;24.29;37.78;99685.72;1087282;46;20007;-88
2023/07/20 09:25:23;;;;;;;;;;;;;;;24.55;37.50;99688.94;1087583;47;19929;-87
2023/07/20 09:26:24;;;;;;;;;;;;;;;24.76;37.23;99687.41;1087573;54;20004;-87
2023/07/20 09:38:50;;;;;;;;;;;;;;;25.27;34.03;99686.56;1087256;54;19995;-87
2023/07/20 09:39:52;;;;;;;;;;;;;;;25.23;34.26;99688.94;1087484;47;19967;-88
2023/07/20 09:51:36;;;;;;;;;;;;;;;25.97;33.90;99685.06;1087621;39;20701;-86
2023/07/20 09:52:41;;;;;;;;;;;;;;;25.73;34.36;99683.63;1087219;47;19938;-86
2023/07/20 09:53:51;;;;;;;;;;;;;;;25.15;34.74;99692.94;1087404;47;19954;-86
2023/07/20 09:54:58;;;;;;;;;;;;;;;25.25;34.55;99691.44;1087481;47;20019;-86
2023/07/20 09:56:03;;;;;;;;;;;;;;;25.47;34.24;99686.84;1091063;39;21003;-86
2023/07/20 10:08:46;;;;;;;;;;;;;;;26.11;33.15;99684.66;1087702;54;20981;-87
2023/07/20 10:29:55;;;;;;;;;;;;;;;26.82;30.28;99664.56;1087335;47;19938;-86
2023/07/20 10:31:02;;;;;;;;;;;;;;;26.52;30.19;99668.66;1087646;47;20000;-87
2023/07/20 10:32:06;;;;;;;;;;;;;;;26.86;29.97;99660.19;1094090;39;20982;-87
2023/07/20 10:33:07;;;;;;;;;;;;;;;26.97;29.05;99661.09;1089880;39;21052;-87
2023/07/20 10:34:13;;;;;;;;;;;;;;;26.71;29.11;99654.56;1087097;47;19927;-88
2023/07/20 10:35:14;;;;;;;;;;;;;;;27.01;29.02;99654.00;1087320;54;19946;-86
2023/07/20 10:36:24;;;;;;;;;;;;;;;27.05;29.18;99654.28;1087211;47;19966;-88
2023/07/20 10:37:48;;;;;;;;;;;;;;;27.27;29.04;99656.09;1087378;47;20022;-86
2023/07/20 10:38:53;;;;;;;;;;;;;;;27.38;28.87;99652.31;1087327;47;19942;-86
2023/07/20 10:39:58;;;;;;;;;;;;;;;27.67;28.40;99641.75;1087969;54;20235;-86
2023/07/20 10:43:22;;;;;;;;;;;;;;;28.25;27.99;99638.09;1087415;54;19942;-86
2023/07/20 10:44:24;;;;;;;;;;;;;;;28.27;28.32;99638.66;1087869;47;19939;-87
2023/07/20 10:45:38;;;;;;;;;;;;;;;28.10;28.60;99638.91;1087673;47;19963;-85
2023/07/20 10:46:45;;;;;;;;;;;;;;;28.35;29.04;99633.72;1087955;46;20032;-90
2023/07/20 10:49:04;;;;;;;;;;;;;;;28.28;29.22;99633.97;1088356;54;19927;-87
2023/07/20 10:50:06;;;;;;;;;;;;;;;27.81;29.88;99633.84;1088333;54;19943;-87
2023/07/20 10:52:15;;;;;;;;;;;;;;;27.42;30.25;99634.19;1088069;54;19981;-86
2023/07/20 10:53:18;;;;;;;;;;;;;;;27.46;29.85;99635.38;1086888;47;19944;31
2023/07/20 10:54:35;;;;;;;;;;;;;;;27.43;29.61;99635.88;1089986;39;21059;-85
2023/07/20 10:55:38;;;;;;;;;;;;;;;27.55;29.12;99635.66;1087537;54;19965;-84
2023/07/20 10:56:39;;;;;;;;;;;;;;;27.83;28.79;99637.16;1086717;47;19942;-85
2023/07/20 10:57:42;;;;;;;;;;;;;;;27.52;28.58;99625.25;1086850;47;19946;-83
2023/07/20 10:58:43;;;;;;;;;;;;;;;27.67;28.85;99619.00;1087189;54;19943;-85
2023/07/20 10:59:46;;;;;;;;;;;;;;;27.65;28.76;99630.22;1087528;54;19974;-84
2023/07/20 11:01:00;;;;;;;;;;;;;;;27.85;28.12;99629.47;1087471;54;19998;-84
2023/07/20 11:02:06;;;;;;;;;;;;;;;27.69;28.24;99623.09;1087167;47;19943;-83
2023/07/20 11:03:09;;;;;;;;;;;;;;;27.58;28.26;99631.56;1087154;54;19955;-83
2023/07/20 11:04:10;;;;;;;;;;;;;;;27.28;28.40;99642.09;1087458;39;20645;-84
2023/07/20 11:05:31;;;;;;;;;;;;;;;27.25;28.66;99634.41;1087278;54;19943;-84
2023/07/20 11:06:32;;;;;;;;;;;;;;;27.48;28.63;99633.19;1087291;54;19950;-83
2023/07/20 11:07:41;;;;;;;;;;;;;;;27.48;28.58;99633.19;1087200;46;19958;-86
2023/07/20 11:08:42;;;;;;;;;;;;;;;27.39;28.93;99638.31;1087281;54;19943;-84
2023/07/20 11:09:45;;;;;;;;;;;;;;;27.12;28.54;99638.41;1087528;54;19943;-86
2023/07/20 11:10:46;;;;;;;;;;;;;;;27.35;28.40;99628.13;1087179;47;19942;-84
2023/07/20 11:11:50;;;;;;;;;;;;;;;27.36;28.42;99632.53;1087220;54;19942;-82
2023/07/20 11:13:06;;;;;;;;;;;;;;;27.40;28.47;99631.75;1087393;54;19946;-85
2023/07/20 11:14:12;;;;;;;;;;;;;;;27.49;28.49;99621.09;1086926;47;19950;-85
2023/07/20 11:15:12;;;;;;;;;;;;;;;27.20;28.44;99624.22;1087358;54;19954;-84
2023/07/20 11:16:19;;;;;;;;;;;;;;;27.20;28.64;99616.00;1087561;54;19942;-86
2023/07/20 11:17:29;;;;;;;;;;;;;;;26.99;28.97;99617.78;1087248;47;19943;-84
2023/07/20 11:18:33;;;;;;;;;;;;;;;26.68;29.77;99624.94;1087391;54;19965;-84
2023/07/20 11:19:33;;;;;;;;;;;;;;;26.67;30.04;99626.84;1087267;47;19942;-84
2023/07/20 11:20:37;;;;;;;;;;;;;;;26.65;30.18;99623.53;1087270;47;20701;-85
2023/07/20 11:21:38;;;;;;;;;;;;;;;26.27;30.70;99625.41;1087257;47;20761;-84
2023/07/20 11:22:42;;;;;;;;;;;;;;;26.26;30.88;99630.03;1087193;47;19978;-83
2023/07/20 11:23:43;;;;;;;;;;;;;;;26.05;30.58;99625.44;1087356;47;19950;-85
2023/07/20 11:24:48;;;;;;;;;;;;;;;26.06;30.67;99627.91;1087233;54;19950;-84
2023/07/20 11:25:49;;;;;;;;;;;;;;;26.06;30.27;99621.63;1087610;54;20057;-83
2023/07/20 11:26:53;;;;;;;;;;;;;;;26.16;30.31;99619.00;1087459;54;21155;-86
2023/07/20 11:27:54;;;;;;;;;;;;;;;26.25;30.56;99614.72;1087098;47;19965;-85
2023/07/20 11:28:57;;;;;;;;;;;;;;;26.33;30.16;99615.31;1087172;54;19966;-83
2023/07/20 11:29:58;;;;;;;;;;;;;;;26.21;30.31;99619.06;1087517;54;19950;-87
2023/07/20 11:30:59;;;;;;;;;;;;;;;26.36;30.22;99612.88;1090160;39;20649;-85
2023/07/20 11:32:03;;;;;;;;;;;;;;;26.26;30.41;99610.88;1092918;31;20778;-84
2023/07/20 11:33:08;;;;;;;;;;;;;;;26.29;30.70;99613.09;1087724;46;19943;-82
2023/07/20 11:34:13;;;;;;;;;;;;;;;26.41;30.46;99617.59;1087704;47;19942;-86
2023/07/20 11:35:14;;;;;;;;;;;;;;;25.92;31.55;99611.06;1088284;39;20260;-86
2023/07/20 11:36:15;;;;;;;;;;;;;;;26.13;31.10;99616.78;1087605;47;19950;-86
2023/07/20 11:37:18;;;;;;;;;;;;;;;26.28;31.38;99613.38;1087667;47;19991;-84
2023/07/20 11:38:19;;;;;;;;;;;;;;;26.33;31.30;99615.31;1087583;54;19942;-85
2023/07/20 11:39:25;;;;;;;;;;;;;;;26.35;31.00;99618.63;1087800;54;19949;-83
2023/07/20 11:40:26;;;;;;;;;;;;;;;26.08;31.12;99614.78;1087893;54;19939;-83
2023/07/20 11:41:29;;;;;;;;;;;;;;;25.98;30.59;99618.22;1087963;54;19942;-84
2023/07/20 11:42:30;;;;;;;;;;;;;;;25.92;31.11;99619.28;1087761;54;19942;-84
2023/07/20 11:43:30;;;;;;;;;;;;;;;26.04;30.67;99612.81;1087954;54;19943;-86
2023/07/20 11:44:34;;;;;;;;;;;;;;;26.22;30.34;99615.22;1087666;47;19943;-86
2023/07/20 11:45:34;;;;;;;;;;;;;;;26.35;30.31;99618.63;1087622;54;19942;-84
2023/07/20 11:46:38;;;;;;;;;;;;;;;25.97;29.89;99619.34;1087837;54;20002;-85
2023/07/20 11:47:41;;;;;;;;;;;;;;;26.11;29.48;99610.72;1087821;54;19942;-86
2023/07/20 11:48:47;;;;;;;;;;;;;;;26.29;29.39;99610.34;1087614;47;19946;-86
2023/07/20 11:49:54;;;;;;;;;;;;;;;26.37;29.27;99602.75;1087767;54;19942;-85
2023/07/20 11:50:54;;;;;;;;;;;;;;;26.33;29.38;99601.63;1087945;54;20326;-84
2023/07/20 11:51:59;;;;;;;;;;;;;;;26.29;29.34;99599.41;1087889;54;19974;-84
2023/07/20 11:53:00;;;;;;;;;;;;;;;26.20;28.91;99606.44;1087800;47;19950;-84
2023/07/20 11:54:04;;;;;;;;;;;;;;;25.96;28.87;99606.72;1087710;54;19994;-87
2023/07/20 11:55:06;;;;;;;;;;;;;;;25.99;28.93;99611.66;1087993;54;19977;-83
2023/07/20 11:56:09;;;;;;;;;;;;;;;26.11;29.33;99597.03;1088020;54;19949;-84
2023/07/20 11:57:15;;;;;;;;;;;;;;;26.23;29.40;99600.44;1087705;47;19943;-85
2023/07/20 11:58:21;;;;;;;;;;;;;;;26.38;29.16;99601.66;1087729;47;19943;-85
2023/07/20 11:59:22;;;;;;;;;;;;;;;26.52;29.18;99602.06;1091961;39;20248;-84
2023/07/20 12:00:27;;;;;;;;;;;;;;;26.56;29.29;99595.78;1087760;47;19948;-84
2023/07/20 12:01:29;;;;;;;;;;;;;;;26.66;29.13;99586.00;1087700;47;19950;-83
2023/07/20 12:02:32;;;;;;;;;;;;;;;26.78;28.88;99589.41;1087709;54;19950;-84
2023/07/20 12:03:33;;;;;;;;;;;;;;;26.72;28.96;99587.69;1087861;54;19995;-86
2023/07/20 12:04:39;;;;;;;;;;;;;;;26.83;28.80;99594.91;1088012;54;19938;-84
2023/07/20 12:05:40;;;;;;;;;;;;;;;26.78;28.61;99589.41;1088009;54;19942;-85
2023/07/20 12:06:43;;;;;;;;;;;;;;;26.90;28.49;99580.97;1087691;47;19942;-84
2023/07/20 12:07:44;;;;;;;;;;;;;;;26.96;28.50;99584.56;1087695;54;19950;-84
2023/07/20 12:08:48;;;;;;;;;;;;;;;26.53;28.78;99588.09;1087825;47;19973;-84
2023/07/20 12:10:02;;;;;;;;;;;;;;;26.62;28.99;99575.56;1087738;47;19942;-86
2023/07/20 12:11:06;;;;;;;;;;;;;;;26.56;28.99;99579.34;1087471;47;19939;-86
2023/07/20 12:12:09;;;;;;;;;;;;;;;26.61;28.75;99573.06;1087602;54;19942;-83
2023/07/20 12:13:14;;;;;;;;;;;;;;;26.62;28.51;99581.06;1087839;54;19949;-83
2023/07/20 12:14:14;;;;;;;;;;;;;;;26.56;27.97;99587.56;1087856;54;19965;-85
2023/07/20 12:15:16;;;;;;;;;;;;;;;26.57;28.01;99574.69;1087593;46;19966;-85
2023/07/20 12:16:19;;;;;;;;;;;;;;;26.63;27.94;99566.25;1087618;54;19943;-84
2023/07/20 12:17:20;;;;;;;;;;;;;;;26.81;27.86;99572.44;1087927;54;19943;-83
2023/07/20 12:18:23;;;;;;;;;;;;;;;26.87;27.72;99574.09;1087803;54;19950;-85
2023/07/20 12:19:27;;;;;;;;;;;;;;;26.91;28.09;99578.00;1087644;47;19994;-84
2023/07/20 12:20:31;;;;;;;;;;;;;;;26.96;27.83;99573.59;1087663;54;19942;-84
2023/07/20 12:21:36;;;;;;;;;;;;;;;26.71;27.94;99577.81;1087943;54;19942;-82
2023/07/20 12:22:40;;;;;;;;;;;;;;;26.78;27.98;99564.72;1088215;39;20215;-84
2023/07/20 12:23:44;;;;;;;;;;;;;;;26.57;28.41;99567.28;1090190;39;20208;-84
2023/07/20 12:24:45;;;;;;;;;;;;;;;26.58;28.18;99568.94;1087242;47;19994;-84
2023/07/20 12:25:49;;;;;;;;;;;;;;;26.71;28.36;99572.34;1087039;54;20726;-86
2023/07/20 12:26:55;;;;;;;;;;;;;;;26.61;28.66;99565.69;1087390;54;19943;-87
2023/07/20 12:28:02;;;;;;;;;;;;;;;26.68;28.67;99567.38;1087393;54;19942;-86
2023/07/20 12:29:03;;;;;;;;;;;;;;;26.80;28.67;99558.97;1087039;47;19942;-85
2023/07/20 12:30:08;;;;;;;;;;;;;;;26.81;28.41;99566.09;1087134;54;19966;-85
2023/07/20 12:31:10;;;;;;;;;;;;;;;26.94;28.17;99560.16;1087347;54;19966;-85
2023/07/20 12:32:13;;;;;;;;;;;;;;;26.85;27.76;99551.59;1088074;39;20238;-84
2023/07/20 12:33:15;;;;;;;;;;;;;;;26.80;27.62;99548.00;1087120;47;19946;-84
2023/07/20 12:34:19;;;;;;;;;;;;;;;26.92;28.06;99552.19;1087127;54;20006;-87
2023/07/20 12:35:19;;;;;;;;;;;;;;;27.03;28.19;99547.59;1086956;47;19950;-83
2023/07/20 12:36:25;;;;;;;;;;;;;;;27.00;27.75;99558.28;1087202;54;19942;-85
2023/07/20 12:37:26;;;;;;;;;;;;;;;26.67;27.88;99552.00;1087092;47;19946;-84
2023/07/20 12:38:30;;;;;;;;;;;;;;;26.59;28.33;99551.41;1087557;39;20502;-88
2023/07/20 12:39:31;;;;;;;;;;;;;;;26.46;28.68;99543.63;1087169;54;20014;-86
2023/07/20 12:40:35;;;;;;;;;;;;;;;26.59;28.59;99551.41;1087212;54;19942;-84
2023/07/20 12:41:35;;;;;;;;;;;;;;;26.70;28.78;99549.56;1087369;54;19942;-83
2023/07/20 12:42:39;;;;;;;;;;;;;;;26.82;28.53;99546.69;1087249;54;19946;-83
2023/07/20 12:43:40;;;;;;;;;;;;;;;26.96;28.61;99544.28;1087340;54;19942;-85
2023/07/20 12:44:44;;;;;;;;;;;;;;;27.04;28.36;99542.94;1087356;54;19954;-88
2023/07/20 12:45:44;;;;;;;;;;;;;;;26.98;28.27;99547.56;1087287;54;20678;-83
2023/07/20 12:46:48;;;;;;;;;;;;;;;27.09;28.30;99545.72;1087012;47;19942;-86
2023/07/20 12:47:49;;;;;;;;;;;;;;;27.07;27.78;99542.41;1086993;54;20014;-85
2023/07/20 12:48:53;;;;;;;;;;;;;;;27.07;27.64;99532.25;1087319;54;20673;-81
2023/07/20 12:49:54;;;;;;;;;;;;;;;27.14;27.83;99536.69;1087045;47;19958;-81
2023/07/20 12:50:55;;;;;;;;;;;;;;;27.15;27.21;99539.16;1087216;54;20730;-84
2023/07/20 12:52:01;;;;;;;;;;;;;;;27.25;27.05;99536.47;1086966;47;19943;-84
2023/07/20 12:53:03;;;;;;;;;;;;;;;27.32;26.91;99535.38;1086896;47;19965;-86
2023/07/20 12:54:06;;;;;;;;;;;;;;;27.40;26.82;99530.22;1087001;54;19977;-86
2023/07/20 12:55:08;;;;;;;;;;;;;;;27.40;26.80;99529.38;1087527;54;19949;-87
2023/07/20 12:56:11;;;;;;;;;;;;;;;27.19;26.94;99529.31;1087019;47;19973;-86
2023/07/20 12:57:12;;;;;;;;;;;;;;;27.18;26.80;99527.66;1087216;54;19943;-87
2023/07/20 12:58:13;;;;;;;;;;;;;;;27.23;27.13;99524.09;1087596;54;19962;-85
2023/07/20 12:59:16;;;;;;;;;;;;;;;27.21;26.79;99527.09;1087221;47;19950;-86
2023/07/20 13:00:17;;;;;;;;;;;;;;;27.33;26.80;99531.53;1087421;46;20622;-85
2023/07/20 13:01:21;;;;;;;;;;;;;;;27.19;26.69;99522.97;1087072;47;20006;-87
2023/07/20 13:02:21;;;;;;;;;;;;;;;27.20;26.40;99524.63;1087259;54;19942;-85
2023/07/20 13:03:25;;;;;;;;;;;;;;;27.31;26.28;99520.00;1087269;54;19942;-85
2023/07/20 13:04:26;;;;;;;;;;;;;;;27.27;26.37;99525.22;1087253;54;20665;-84
2023/07/20 13:05:29;;;;;;;;;;;;;;;27.21;26.51;99527.09;1087355;54;19943;-82
2023/07/20 13:06:30;;;;;;;;;;;;;;;26.88;26.90;99520.94;1087023;46;20006;-82
2023/07/20 13:07:37;;;;;;;;;;;;;;;26.94;26.81;99527.28;1087144;47;19942;-84
2023/07/20 13:08:37;;;;;;;;;;;;;;;26.88;27.00;99522.81;1087046;47;19943;-87
2023/07/20 13:09:41;;;;;;;;;;;;;;;26.86;27.07;99520.38;1087179;54;19966;-85
2023/07/20 13:10:42;;;;;;;;;;;;;;;26.79;27.16;99525.25;1086990;46;21041;-84
2023/07/20 13:11:45;;;;;;;;;;;;;;;27.07;27.23;99521.28;1087024;47;19943;-86
2023/07/20 13:12:46;;;;;;;;;;;;;;;26.93;27.97;99523.69;1086970;47;19950;-85
2023/07/20 13:13:50;;;;;;;;;;;;;;;26.73;27.54;99527.13;1087027;47;19942;-85
2023/07/20 13:14:50;;;;;;;;;;;;;;;26.84;27.96;99521.72;1087036;54;20015;-86
2023/07/20 13:15:54;;;;;;;;;;;;;;;27.00;27.23;99517.16;1087076;47;19942;-84
2023/07/20 13:16:55;;;;;;;;;;;;;;;26.93;27.02;99517.38;1087019;54;19954;-84
2023/07/20 13:17:56;;;;;;;;;;;;;;;27.04;26.76;99508.13;1087200;54;19942;-86
2023/07/20 13:18:59;;;;;;;;;;;;;;;26.91;26.84;99512.19;1087205;54;19990;-86
2023/07/20 13:20:00;;;;;;;;;;;;;;;27.08;26.83;99511.16;1087264;54;19954;-85
2023/07/20 13:21:03;;;;;;;;;;;;;;;27.05;26.66;99501.56;1086933;47;19970;-85
2023/07/20 13:22:04;;;;;;;;;;;;;;;27.14;26.66;99509.25;1087048;54;19998;-86
2023/07/20 13:23:10;;;;;;;;;;;;;;;27.30;26.29;99505.47;1087165;54;19942;-84
2023/07/20 13:24:11;;;;;;;;;;;;;;;27.23;26.52;99502.97;1086996;47;19938;-84
2023/07/20 13:25:14;;;;;;;;;;;;;;;27.33;26.60;99513.19;1086880;47;19942;-83
2023/07/20 13:26:15;;;;;;;;;;;;;;;27.44;26.83;99508.56;1087028;54;19942;-82
2023/07/20 13:27:19;;;;;;;;;;;;;;;27.30;26.48;99508.22;1087266;54;19954;-84
2023/07/20 13:28:19;;;;;;;;;;;;;;;27.35;26.49;99504.66;1089459;31;20721;-86
2023/07/20 13:29:23;;;;;;;;;;;;;;;27.11;26.57;99496.91;1087086;54;19949;-85
2023/07/20 13:30:23;;;;;;;;;;;;;;;27.20;26.30;99502.69;1087186;54;19942;-85
2023/07/20 13:31:27;;;;;;;;;;;;;;;27.19;26.45;99506.53;1087595;39;20586;-84
2023/07/20 13:32:28;;;;;;;;;;;;;;;26.93;26.82;99504.50;1086880;54;19942;-83
2023/07/20 13:33:31;;;;;;;;;;;;;;;26.81;27.09;99505.78;1086854;47;19950;-85
2023/07/20 13:34:32;;;;;;;;;;;;;;;27.01;27.00;99497.69;1086980;54;19943;-84
2023/07/20 13:35:35;;;;;;;;;;;;;;;27.03;27.40;99497.41;1087246;54;20733;-83
2023/07/20 13:36:37;;;;;;;;;;;;;;;27.03;27.07;99506.47;1086978;47;19966;-86
2023/07/20 13:37:37;;;;;;;;;;;;;;;27.19;27.33;99507.38;1086954;47;21265;-86
2023/07/20 13:38:43;;;;;;;;;;;;;;;26.98;27.50;99502.88;1086922;47;19942;-85
2023/07/20 13:39:44;;;;;;;;;;;;;;;27.08;27.44;99495.50;1086996;47;19943;-85
2023/07/20 13:40:48;;;;;;;;;;;;;;;27.14;27.36;99504.59;1086996;54;19949;-85
2023/07/20 13:41:49;;;;;;;;;;;;;;;27.20;27.00;99509.03;1087262;54;19942;-84
2023/07/20 13:42:49;;;;;;;;;;;;;;;27.22;26.98;99500.50;1087328;39;20148;-85
2023/07/20 13:43:52;;;;;;;;;;;;;;;27.32;26.66;99505.19;1086985;54;19954;-84
2023/07/20 13:44:53;;;;;;;;;;;;;;;27.41;26.82;99506.31;1087367;54;20030;-87
2023/07/20 14:10:00;;;;;;;;;;;;;;;27.36;25.88;99474.19;1087196;54;19950;-86
2023/07/20 14:11:01;;;;;;;;;;;;;;;27.51;26.09;99473.44;1087250;54;19950;-83
2023/07/20 14:12:05;;;;;;;;;;;;;;;27.55;25.87;99471.81;1087297;54;19949;-85
2023/07/20 14:13:05;;;;;;;;;;;;;;;27.45;26.02;99468.22;1087827;39;20256;-86
2023/07/20 14:14:09;;;;;;;;;;;;;;;27.48;26.21;99471.28;1087196;54;19942;-83
2023/07/20 14:15:10;;;;;;;;;;;;;;;27.42;26.13;99472.31;1087018;47;19966;-85
2023/07/20 14:16:13;;;;;;;;;;;;;;;27.42;26.15;99469.56;1087156;54;19967;-86
2023/07/20 14:17:14;;;;;;;;;;;;;;;27.45;26.19;99468.22;1087398;47;20010;-84
2023/07/20 14:18:17;;;;;;;;;;;;;;;27.45;26.15;99469.06;1086934;54;19942;-85
2023/07/20 14:19:18;;;;;;;;;;;;;;;27.68;26.11;99464.97;1086898;47;19990;-85
2023/07/20 14:20:21;;;;;;;;;;;;;;;27.54;26.14;99464.69;1087027;54;19942;-86
2023/07/20 14:21:23;;;;;;;;;;;;;;;27.77;25.91;99464.44;1087211;54;20076;-87
2023/07/20 14:22:26;;;;;;;;;;;;;;;27.80;26.11;99464.69;1087058;47;19966;-83
2023/07/20 14:23:27;;;;;;;;;;;;;;;27.87;26.22;99465.25;1086887;54;19942;-85
2023/07/20 14:24:30;;;;;;;;;;;;;;;27.99;25.93;99455.91;1087252;54;19946;-84
2023/07/20 14:25:34;;;;;;;;;;;;;;;28.06;25.70;99463.88;1087062;46;19942;-85
2023/07/20 14:26:37;;;;;;;;;;;;;;;27.90;25.84;99460.31;1086961;54;19943;-84
2023/07/20 14:27:38;;;;;;;;;;;;;;;27.90;25.46;99457.56;1086946;47;19943;-84
2023/07/20 14:28:41;;;;;;;;;;;;;;;28.04;25.24;99461.44;1086829;54;19966;-84
2023/07/20 14:29:43;;;;;;;;;;;;;;;28.25;24.71;99462.25;1086925;54;19943;-84
2023/07/20 14:30:46;;;;;;;;;;;;;;;27.96;25.83;99456.50;1087406;54;19994;-83
2023/07/20 14:31:50;;;;;;;;;;;;;;;27.87;26.07;99459.75;1087243;47;20756;-85
2023/07/20 14:32:53;;;;;;;;;;;;;;;27.90;25.74;99454.81;1086816;54;20606;-83
2023/07/20 14:33:54;;;;;;;;;;;;;;;28.02;25.97;99453.44;1087349;54;19942;-85
2023/07/20 14:34:57;;;;;;;;;;;;;;;28.26;25.58;99452.06;1086948;47;19950;-83
2023/07/20 14:35:58;;;;;;;;;;;;;;;28.12;25.39;99446.31;1086982;54;19946;-82
2023/07/20 14:37:02;;;;;;;;;;;;;;;28.28;25.40;99449.88;1087128;54;19942;-86
2023/07/20 14:38:03;;;;;;;;;;;;;;;28.63;25.29;99439.91;1086962;47;19942;-84
2023/07/20 14:39:06;;;;;;;;;;;;;;;28.94;24.96;99445.31;1086881;54;19965;-84
2023/07/20 14:40:08;;;;;;;;;;;;;;;28.93;24.75;99439.00;1087171;54;20701;-84
2023/07/20 14:41:14;;;;;;;;;;;;;;;29.29;24.16;99434.41;1086969;47;19942;-84
2023/07/20 14:42:15;;;;;;;;;;;;;;;29.50;24.00;99444.22;1086926;47;19943;-83
2023/07/20 14:43:18;;;;;;;;;;;;;;;29.24;23.92;99444.34;1087079;39;20630;-86
2023/07/20 14:44:20;;;;;;;;;;;;;;;29.19;24.03;99438.06;1087041;47;19943;-85
2023/07/20 14:45:23;;;;;;;;;;;;;;;29.22;23.77;99442.97;1086764;47;19966;-85
2023/07/20 14:46:24;;;;;;;;;;;;;;;29.58;23.45;99437.28;1086921;54;19943;-85
2023/07/20 14:47:27;;;;;;;;;;;;;;;29.96;23.19;99437.56;1086797;47;19942;-86
2023/07/20 14:48:28;;;;;;;;;;;;;;;30.19;22.84;99429.63;1086742;47;19946;-83
2023/07/20 14:49:32;;;;;;;;;;;;;;;29.95;22.82;99435.91;1086978;54;19969;-83
2023/07/20 14:50:32;;;;;;;;;;;;;;;29.76;22.90;99435.78;1087143;54;19943;-84
2023/07/20 14:51:42;;;;;;;;;;;;;;;29.67;22.98;99443.00;1089077;39;20877;-83
2023/07/20 14:52:43;;;;;;;;;;;;;;;29.76;23.25;99444.03;1087135;54;19942;-85
2023/07/20 14:53:46;;;;;;;;;;;;;;;29.81;23.22;99435.72;1086855;47;19943;-82
2023/07/20 14:54:47;;;;;;;;;;;;;;;30.02;22.82;99430.91;1086969;54;19949;-84
2023/07/20 14:55:50;;;;;;;;;;;;;;;30.10;22.86;99429.44;1087175;54;19994;-86
2023/07/20 14:56:54;;;;;;;;;;;;;;;30.14;22.74;99432.44;1087191;54;20006;-84
2023/07/20 14:57:57;;;;;;;;;;;;;;;29.93;22.76;99437.31;1086796;47;19945;-84
2023/07/20 14:59:00;;;;;;;;;;;;;;;29.66;22.80;99428.41;1086859;47;19939;-86
2023/07/20 15:00:06;;;;;;;;;;;;;;;29.99;22.95;99425.97;1086866;47;19943;-83
2023/07/20 15:01:07;;;;;;;;;;;;;;;29.75;22.77;99436.06;1086917;54;19943;-83
2023/07/20 15:02:10;;;;;;;;;;;;;;;29.55;23.06;99433.16;1087198;54;19954;-82
2023/07/20 15:03:11;;;;;;;;;;;;;;;29.30;23.29;99436.06;1087190;54;19943;-83
2023/07/20 15:04:14;;;;;;;;;;;;;;;29.66;22.86;99425.66;1088318;39;20582;-86
2023/07/20 15:05:20;;;;;;;;;;;;;;;29.80;22.80;99434.09;1086940;47;19949;-85
2023/07/20 15:06:23;;;;;;;;;;;;;;;30.02;22.92;99422.63;1086821;47;19959;-84
2023/07/20 15:07:24;;;;;;;;;;;;;;;30.14;22.75;99426.91;1088223;39;20610;-85
2023/07/20 15:08:28;;;;;;;;;;;;;;;29.64;22.97;99430.63;1087001;54;19949;-85
2023/07/20 15:09:28;;;;;;;;;;;;;;;29.77;22.64;99423.66;1086904;47;19994;-84
2023/07/20 15:10:32;;;;;;;;;;;;;;;29.77;22.70;99428.31;1087899;39;20068;-86
2023/07/20 15:11:33;;;;;;;;;;;;;;;30.04;22.48;99422.34;1086928;47;19942;-84
2023/07/20 15:12:39;;;;;;;;;;;;;;;29.95;22.60;99430.41;1086922;54;19965;-85
2023/07/20 15:13:42;;;;;;;;;;;;;;;29.67;22.90;99420.97;1087116;54;19965;-84
2023/07/20 15:14:46;;;;;;;;;;;;;;;29.79;22.75;99421.44;1086959;47;19942;-85
2023/07/20 15:15:47;;;;;;;;;;;;;;;29.83;22.54;99427.19;1086837;54;19965;-86
2023/07/20 15:16:51;;;;;;;;;;;;;;;29.77;22.22;99422.81;1087116;54;20730;-85
2023/07/20 15:17:52;;;;;;;;;;;;;;;29.56;22.25;99420.25;1087176;39;21000;-85
2023/07/20 15:18:56;;;;;;;;;;;;;;;29.33;22.25;99424.53;1086839;47;19942;-86
2023/07/20 15:19:57;;;;;;;;;;;;;;;29.26;22.38;99419.31;1086804;47;19943;-84
2023/07/20 15:21:00;;;;;;;;;;;;;;;29.25;22.45;99418.47;1086845;54;19966;-84
2023/07/20 15:22:00;;;;;;;;;;;;;;;29.50;22.49;99419.44;1087097;54;19943;-86
2023/07/20 15:23:04;;;;;;;;;;;;;;;29.58;22.02;99415.25;1086790;47;19967;-85
2023/07/20 15:24:05;;;;;;;;;;;;;;;29.71;22.47;99414.59;1086942;54;20927;-86
2023/07/20 15:25:07;;;;;;;;;;;;;;;29.88;22.06;99407.84;1087333;54;19949;-84
2023/07/20 15:26:11;;;;;;;;;;;;;;;29.91;22.28;99407.28;1087402;54;19949;-86
2023/07/20 15:27:11;;;;;;;;;;;;;;;29.47;22.83;99410.94;1089728;39;20550;-84
2023/07/20 15:28:17;;;;;;;;;;;;;;;29.32;22.98;99412.69;1087399;54;19943;-85
2023/07/20 15:29:18;;;;;;;;;;;;;;;28.98;23.43;99410.66;1087277;47;19943;-86
2023/07/20 15:30:21;;;;;;;;;;;;;;;28.93;23.55;99403.25;1087197;54;19991;-86
2023/07/20 15:31:23;;;;;;;;;;;;;;;28.95;23.68;99400.22;1088370;39;20624;-87
2023/07/20 15:32:26;;;;;;;;;;;;;;;29.08;23.35;99404.25;1088134;39;20318;-84
2023/07/20 15:33:27;;;;;;;;;;;;;;;29.19;23.48;99400.34;1088430;46;19962;-85
2023/07/20 15:34:30;;;;;;;;;;;;;;;29.37;23.29;99407.16;1087200;47;21139;-84
2023/07/20 15:35:31;;;;;;;;;;;;;;;29.35;23.50;99400.28;1087256;54;19946;-85
2023/07/20 15:36:34;;;;;;;;;;;;;;;29.05;23.58;99402.91;1087430;54;20016;-86
2023/07/20 15:37:36;;;;;;;;;;;;;;;29.31;23.43;99393.69;1087469;54;19965;-85
2023/07/20 15:38:39;;;;;;;;;;;;;;;29.05;23.56;99402.91;1087401;54;19942;-86
2023/07/20 15:39:41;;;;;;;;;;;;;;;28.97;23.92;99403.50;1087570;54;19942;-85
2023/07/20 15:40:45;;;;;;;;;;;;;;;29.02;23.98;99397.97;1087896;39;20550;-85
2023/07/20 15:41:47;;;;;;;;;;;;;;;28.96;24.00;99399.09;1087817;39;20939;-85
2023/07/20 15:42:51;;;;;;;;;;;;;;;29.03;24.02;99396.88;1087480;54;20729;-85
2023/07/20 15:43:55;;;;;;;;;;;;;;;29.15;23.80;99385.50;1087434;54;19949;-86
2023/07/20 15:44:58;;;;;;;;;;;;;;;29.08;23.60;99394.09;1087271;47;19943;-86
2023/07/20 15:46:18;;;;;;;;;;;;;;;29.26;23.52;99392.59;1087107;54;19942;-86
2023/07/20 15:47:21;;;;;;;;;;;;;;;29.18;23.38;99397.91;1087142;47;19943;-84
2023/07/20 15:48:22;;;;;;;;;;;;;;;28.89;23.26;99402.16;1087133;47;19943;-83
2023/07/20 15:49:27;;;;;;;;;;;;;;;28.95;23.26;99386.47;1087244;54;19966;-85
2023/07/20 15:50:27;;;;;;;;;;;;;;;29.01;23.02;99387.25;1087521;54;19943;-85
2023/07/20 15:51:28;;;;;;;;;;;;;;;29.08;22.88;99387.75;1087185;47;19958;-86
2023/07/20 15:52:31;;;;;;;;;;;;;;;28.86;23.03;99388.97;1087272;54;19954;-86
2023/07/20 15:53:32;;;;;;;;;;;;;;;28.84;22.63;99391.19;1087117;46;19973;-84
2023/07/20 15:54:33;;;;;;;;;;;;;;;28.56;23.41;99396.25;1087245;54;19950;-85
2023/07/20 15:55:36;;;;;;;;;;;;;;;28.44;22.89;99384.72;1087553;54;19949;-84
2023/07/20 15:56:38;;;;;;;;;;;;;;;28.15;23.35;99396.34;1087242;47;19966;-85
2023/07/20 15:57:41;;;;;;;;;;;;;;;28.41;23.28;99393.53;1087269;47;19942;-85
2023/07/20 15:58:42;;;;;;;;;;;;;;;28.37;23.22;99385.00;1087293;47;19966;-83
2023/07/20 15:59:49;;;;;;;;;;;;;;;28.26;23.76;99375.97;1087447;54;19987;-85
2023/07/20 16:00:53;;;;;;;;;;;;;;;28.30;23.58;99376.25;1087366;47;19943;-84
2023/07/20 16:01:56;;;;;;;;;;;;;;;28.14;23.95;99378.19;1087584;47;19947;-84